createdAt,value
2018-06-27T00:01:04.966Z,0.00
2018-06-27T00:02:05.029Z,0.00
2018-06-27T00:03:58.019Z,0.00
2018-06-27T00:04:58.073Z,0.00
2018-06-27T00:06:51.069Z,0.00
2018-06-27T00:07:51.121Z,0.00
2018-06-27T00:09:44.105Z,0.00
2018-06-27T00:10:44.167Z,0.00
2018-06-27T00:12:37.160Z,0.00
2018-06-27T00:13:37.215Z,0.00
2018-06-27T00:15:30.207Z,0.00
2018-06-27T00:16:30.272Z,0.00
2018-06-27T00:18:23.264Z,0.00
2018-06-27T00:19:23.340Z,0.00
2018-06-27T00:21:16.313Z,0.00
2018-06-27T00:22:16.364Z,0.00
2018-06-27T00:24:09.363Z,0.00
2018-06-27T00:25:09.412Z,0.00
2018-06-27T00:27:02.406Z,0.00
2018-06-27T00:28:02.460Z,0.00
2018-06-27T00:29:55.449Z,0.00
2018-06-27T00:30:55.511Z,0.00
2018-06-27T00:32:48.502Z,0.00
2018-06-27T00:33:49.579Z,0.00
2018-06-27T00:35:41.542Z,0.00
2018-06-27T00:36:41.604Z,0.00
2018-06-27T00:38:34.602Z,0.00
2018-06-27T00:39:34.650Z,0.00
2018-06-27T00:41:27.635Z,0.00
2018-06-27T00:42:27.696Z,0.00
2018-06-27T00:44:20.691Z,0.00
2018-06-27T00:45:20.745Z,0.00
2018-06-27T00:47:13.732Z,0.00
2018-06-27T00:48:13.794Z,0.00
2018-06-27T00:50:06.787Z,0.00
2018-06-27T00:51:06.842Z,0.00
2018-06-27T00:52:59.837Z,0.00
2018-06-27T00:53:59.887Z,0.00
2018-06-27T00:55:52.872Z,0.00
2018-06-27T00:56:52.935Z,0.00
2018-06-27T00:58:45.929Z,0.00
2018-06-27T00:59:45.981Z,0.00
2018-06-27T01:01:38.967Z,0.00
2018-06-27T01:02:39.028Z,0.00
2018-06-27T01:04:32.023Z,0.00
2018-06-27T01:05:32.075Z,0.00
2018-06-27T01:07:25.067Z,0.00
2018-06-27T01:08:25.124Z,0.00
2018-06-27T01:10:18.118Z,0.00
2018-06-27T01:11:18.169Z,0.00
2018-06-27T01:13:11.166Z,0.00
2018-06-27T01:14:11.215Z,0.00
2018-06-27T01:16:04.201Z,0.00
2018-06-27T01:17:04.263Z,0.00
2018-06-27T01:18:57.255Z,0.00
2018-06-27T01:19:57.311Z,0.00
2018-06-27T01:21:50.298Z,0.00
2018-06-27T01:22:50.361Z,0.00
2018-06-27T01:24:43.390Z,0.00
2018-06-27T01:25:43.407Z,0.00
2018-06-27T01:27:36.395Z,0.00
2018-06-27T01:28:36.455Z,0.00
2018-06-27T01:30:29.450Z,0.00
2018-06-27T01:31:29.503Z,0.00
2018-06-27T01:33:22.488Z,0.00
2018-06-27T01:34:22.549Z,0.00
2018-06-27T01:36:15.540Z,0.00
2018-06-27T01:37:15.594Z,0.00
2018-06-27T01:39:08.593Z,0.00
2018-06-27T01:40:08.640Z,0.00
2018-06-27T01:42:01.626Z,0.00
2018-06-27T01:43:01.686Z,0.00
2018-06-27T01:44:54.682Z,0.00
2018-06-27T01:45:54.734Z,0.00
2018-06-27T01:47:47.722Z,0.00
2018-06-27T01:48:47.784Z,0.00
2018-06-27T01:50:40.780Z,0.00
2018-06-27T01:51:40.830Z,0.00
2018-06-27T01:53:33.814Z,0.00
2018-06-27T01:54:33.875Z,0.00
2018-06-27T01:56:26.869Z,0.00
2018-06-27T01:57:26.921Z,0.00
2018-06-27T01:59:19.908Z,0.00
2018-06-27T02:00:19.972Z,0.00
2018-06-27T02:02:12.961Z,0.00
2018-06-27T02:03:13.016Z,0.00
2018-06-27T02:05:06.514Z,0.00
2018-06-27T02:06:06.570Z,0.00
2018-06-27T02:07:59.555Z,0.00
2018-06-27T02:08:59.614Z,0.00
2018-06-27T02:10:52.605Z,0.00
2018-06-27T02:11:52.660Z,0.00
2018-06-27T02:13:45.655Z,0.00
2018-06-27T02:14:45.714Z,0.00
2018-06-27T02:16:38.709Z,0.00
2018-06-27T02:17:38.795Z,0.00
2018-06-27T02:19:31.750Z,0.00
2018-06-27T02:20:31.810Z,0.00
2018-06-27T02:22:24.801Z,0.00
2018-06-27T02:23:24.857Z,0.00
2018-06-27T02:25:17.864Z,0.00
2018-06-27T02:26:17.907Z,0.00
2018-06-27T02:28:10.887Z,4.00
2018-06-27T02:29:10.949Z,4.00
2018-06-27T02:31:03.944Z,4.00
2018-06-27T02:32:03.996Z,0.00
2018-06-27T02:33:56.993Z,4.00
2018-06-27T02:34:57.051Z,4.00
2018-06-27T02:36:50.044Z,4.00
2018-06-27T02:37:50.098Z,8.00
2018-06-27T02:39:43.084Z,8.00
2018-06-27T02:40:43.143Z,8.00
2018-06-27T02:42:36.139Z,12.00
2018-06-27T02:43:36.191Z,12.00
2018-06-27T02:45:29.180Z,16.00
2018-06-27T02:46:29.237Z,16.00
2018-06-27T02:48:22.228Z,20.00
2018-06-27T02:49:22.283Z,24.00
2018-06-27T02:51:15.278Z,28.00
2018-06-27T02:52:15.331Z,28.00
2018-06-27T02:54:08.314Z,36.00
2018-06-27T02:55:08.375Z,40.00
2018-06-27T02:57:01.369Z,48.00
2018-06-27T02:58:01.421Z,56.00
2018-06-27T02:59:54.403Z,64.00
2018-06-27T03:00:54.464Z,68.00
2018-06-27T03:02:47.454Z,84.00
2018-06-27T03:03:47.509Z,88.00
2018-06-27T03:05:41.004Z,108.00
2018-06-27T03:06:41.063Z,116.00
2018-06-27T03:08:34.057Z,132.00
2018-06-27T03:09:34.115Z,144.00
2018-06-27T03:11:27.106Z,164.00
2018-06-27T03:12:27.162Z,180.00
2018-06-27T03:14:20.146Z,200.00
2018-06-27T03:15:20.206Z,216.00
2018-06-27T03:17:13.199Z,244.00
2018-06-27T03:18:13.249Z,256.00
2018-06-27T03:20:06.237Z,284.00
2018-06-27T03:21:06.298Z,304.00
2018-06-27T03:22:59.288Z,336.00
2018-06-27T03:23:59.343Z,356.00
2018-06-27T03:25:52.329Z,392.00
2018-06-27T03:26:52.388Z,412.00
2018-06-27T03:28:45.382Z,456.00
2018-06-27T03:29:45.433Z,476.00
2018-06-27T03:31:38.426Z,520.00
2018-06-27T03:32:38.478Z,544.00
2018-06-27T03:34:31.463Z,588.00
2018-06-27T03:35:31.523Z,616.00
2018-06-27T03:37:24.518Z,660.00
2018-06-27T03:38:24.568Z,688.00
2018-06-27T03:40:17.558Z,740.00
2018-06-27T03:41:17.620Z,768.00
2018-06-27T03:43:10.611Z,820.00
2018-06-27T03:44:10.665Z,844.00
2018-06-27T03:46:03.650Z,900.00
2018-06-27T03:47:03.713Z,928.00
2018-06-27T03:48:56.704Z,992.00
2018-06-27T03:49:56.755Z,1020.00
2018-06-27T03:51:49.740Z,1084.00
2018-06-27T03:52:49.802Z,1112.00
2018-06-27T03:54:42.795Z,1172.00
2018-06-27T03:55:42.846Z,1204.00
2018-06-27T03:57:35.840Z,1268.00
2018-06-27T03:58:35.893Z,1296.00
2018-06-27T04:00:28.898Z,1356.00
2018-06-27T04:01:28.991Z,1392.00
2018-06-27T04:03:21.955Z,1456.00
2018-06-27T04:04:22.008Z,1496.00
2018-06-27T04:06:14.998Z,1576.00
2018-06-27T04:07:15.057Z,1624.00
2018-06-27T04:09:08.054Z,1684.00
2018-06-27T04:10:08.109Z,1720.00
2018-06-27T04:12:01.094Z,1800.00
2018-06-27T04:13:01.401Z,1840.00
2018-06-27T04:14:54.150Z,1912.00
2018-06-27T04:15:54.203Z,1940.00
2018-06-27T04:17:47.201Z,2012.00
2018-06-27T04:18:47.255Z,2060.00
2018-06-27T04:20:40.234Z,2136.00
2018-06-27T04:21:40.294Z,2168.00
2018-06-27T04:23:33.288Z,2232.00
2018-06-27T04:24:33.343Z,2264.00
2018-06-27T04:26:26.327Z,2332.00
2018-06-27T04:27:26.388Z,2368.00
2018-06-27T04:29:19.379Z,2444.00
2018-06-27T04:30:19.433Z,2484.00
2018-06-27T04:32:12.416Z,2548.00
2018-06-27T04:33:12.479Z,2560.00
2018-06-27T04:35:05.473Z,2592.00
2018-06-27T04:36:05.571Z,2636.00
2018-06-27T04:37:58.520Z,2768.00
2018-06-27T04:38:58.578Z,2804.00
2018-06-27T04:40:51.573Z,2900.00
2018-06-27T04:41:51.625Z,2944.00
2018-06-27T04:43:44.619Z,3008.00
2018-06-27T04:44:44.676Z,3152.00
2018-06-27T04:46:37.663Z,3232.00
2018-06-27T04:47:37.725Z,3272.00
2018-06-27T04:49:30.723Z,3344.00
2018-06-27T04:50:30.774Z,3384.00
2018-06-27T04:52:23.756Z,3436.00
2018-06-27T04:53:23.818Z,3492.00
2018-06-27T04:55:16.810Z,3556.00
2018-06-27T04:56:16.867Z,3588.00
2018-06-27T04:58:09.851Z,3672.00
2018-06-27T04:59:09.909Z,3712.00
2018-06-27T05:01:02.900Z,3812.00
2018-06-27T05:02:02.956Z,3892.00
2018-06-27T05:03:55.956Z,3968.00
2018-06-27T05:04:56.004Z,4068.00
2018-06-27T05:06:48.989Z,4136.00
2018-06-27T05:07:49.049Z,4188.00
2018-06-27T05:09:42.043Z,4288.00
2018-06-27T05:10:42.101Z,4324.00
2018-06-27T05:12:35.091Z,4364.00
2018-06-27T05:13:35.151Z,4472.00
2018-06-27T05:15:28.145Z,4508.00
2018-06-27T05:16:28.199Z,4604.00
2018-06-27T05:18:21.205Z,4700.00
2018-06-27T05:19:21.244Z,4800.00
2018-06-27T05:21:14.244Z,4912.00
2018-06-27T05:22:14.295Z,4940.00
2018-06-27T05:24:07.280Z,5068.00
2018-06-27T05:25:07.341Z,5180.00
2018-06-27T05:27:00.334Z,5276.00
2018-06-27T05:28:00.392Z,5336.00
2018-06-27T05:29:53.381Z,5400.00
2018-06-27T05:30:53.435Z,5444.00
2018-06-27T05:32:46.423Z,5436.00
2018-06-27T05:33:46.482Z,5536.00
2018-06-27T05:35:39.474Z,5608.00
2018-06-27T05:36:39.527Z,5660.00
2018-06-27T05:38:32.519Z,5780.00
2018-06-27T05:39:32.581Z,5864.00
2018-06-27T05:41:25.572Z,6004.00
2018-06-27T05:42:25.627Z,6056.00
2018-06-27T05:44:18.630Z,6236.00
2018-06-27T05:45:18.684Z,6312.00
2018-06-27T05:47:11.676Z,6436.00
2018-06-27T05:48:11.731Z,6616.00
2018-06-27T05:50:04.726Z,6704.00
2018-06-27T05:51:04.778Z,6748.00
2018-06-27T05:52:57.778Z,6876.00
2018-06-27T05:53:57.833Z,7060.00
2018-06-27T05:55:50.828Z,7408.00
2018-06-27T05:56:50.882Z,7304.00
2018-06-27T05:58:43.879Z,7688.00
2018-06-27T05:59:43.937Z,7956.00
2018-06-27T06:01:36.932Z,8020.00
2018-06-27T06:02:36.988Z,8620.00
2018-06-27T06:04:30.045Z,8204.00
2018-06-27T06:05:30.036Z,8312.00
2018-06-27T06:07:23.032Z,8792.00
2018-06-27T06:08:23.085Z,8720.00
2018-06-27T06:10:16.093Z,9304.00
2018-06-27T06:11:16.176Z,9532.00
2018-06-27T06:13:09.120Z,10188.00
2018-06-27T06:14:09.183Z,10736.00
2018-06-27T06:16:02.178Z,11716.00
2018-06-27T06:17:02.233Z,12104.00
2018-06-27T06:18:55.268Z,13276.00
2018-06-27T06:19:55.282Z,13896.00
2018-06-27T06:21:48.280Z,14428.00
2018-06-27T06:22:48.334Z,15200.00
2018-06-27T06:24:41.324Z,15888.00
2018-06-27T06:25:41.388Z,16320.00
2018-06-27T06:27:34.385Z,17248.00
2018-06-27T06:28:34.440Z,17312.00
2018-06-27T06:30:27.440Z,19168.00
2018-06-27T06:31:27.499Z,20064.00
2018-06-27T06:33:20.497Z,23200.00
2018-06-27T06:34:20.557Z,25504.00
2018-06-27T06:36:13.566Z,27520.00
2018-06-27T06:37:13.621Z,28224.00
2018-06-27T06:39:06.621Z,30944.00
2018-06-27T06:40:06.686Z,33248.00
2018-06-27T06:41:59.690Z,36832.00
2018-06-27T06:42:59.753Z,40672.00
2018-06-27T06:44:52.753Z,48800.00
2018-06-27T06:45:52.824Z,47616.00
2018-06-27T06:47:45.827Z,50624.00
2018-06-27T06:48:45.891Z,54016.00
2018-06-27T06:50:38.895Z,63168.00
2018-06-27T06:51:38.962Z,69248.00
2018-06-27T06:53:31.975Z,76832.00
2018-06-27T06:54:32.040Z,85536.00
2018-06-27T06:56:25.052Z,88576.00
2018-06-27T06:57:25.117Z,90368.00
2018-06-27T06:59:18.127Z,81248.00
2018-06-27T07:00:18.195Z,78464.00
2018-06-27T07:02:11.208Z,70272.00
2018-06-27T07:03:11.274Z,64992.00
2018-06-27T07:05:04.881Z,56000.00
2018-06-27T07:06:04.863Z,49760.00
2018-06-27T07:07:57.879Z,49312.00
2018-06-27T07:08:57.943Z,47392.00
2018-06-27T07:10:50.957Z,47712.00
2018-06-27T07:11:51.028Z,47872.00
2018-06-27T07:13:44.043Z,48384.00
2018-06-27T07:14:44.113Z,49664.00
2018-06-27T07:16:37.141Z,47712.00
2018-06-27T07:17:37.199Z,48768.00
2018-06-27T07:19:30.214Z,52192.00
2018-06-27T07:20:30.291Z,54496.00
2018-06-27T07:22:23.310Z,55872.00
2018-06-27T07:23:23.377Z,56256.00
2018-06-27T07:25:16.391Z,55840.00
2018-06-27T07:26:16.469Z,57024.00
2018-06-27T07:28:09.485Z,57504.00
2018-06-27T07:29:09.555Z,56512.00
2018-06-27T07:31:02.574Z,58016.00
2018-06-27T07:32:02.648Z,58112.00
2018-06-27T07:33:55.669Z,62016.00
2018-06-27T07:34:55.741Z,65536.00
2018-06-27T07:36:48.755Z,63360.00
2018-06-27T07:37:48.834Z,60448.00
2018-06-27T07:39:41.860Z,58624.00
2018-06-27T07:40:41.933Z,60128.00
2018-06-27T07:42:34.959Z,56224.00
2018-06-27T07:43:35.026Z,54016.00
2018-06-27T07:45:28.043Z,54528.00
2018-06-27T07:46:28.122Z,54208.00
2018-06-27T07:48:21.147Z,54208.00
2018-06-27T07:49:21.226Z,54400.00
2018-06-27T07:51:14.240Z,53888.00
2018-06-27T07:52:14.318Z,53088.00
2018-06-27T07:54:07.352Z,54112.00
2018-06-27T07:55:07.434Z,55552.00
2018-06-27T07:57:00.452Z,53888.00
2018-06-27T07:58:00.523Z,54848.00
2018-06-27T07:59:53.553Z,57664.00
2018-06-27T08:00:53.623Z,56512.00
2018-06-27T08:02:46.642Z,59168.00
2018-06-27T08:03:46.723Z,60192.00
2018-06-27T08:05:40.278Z,59296.00
2018-06-27T08:06:40.353Z,58528.00
2018-06-27T08:08:33.381Z,58432.00
2018-06-27T08:09:33.457Z,57984.00
2018-06-27T08:11:26.477Z,57728.00
2018-06-27T08:12:26.659Z,57824.00
2018-06-27T08:14:19.584Z,56160.00
2018-06-27T08:15:19.659Z,55328.00
2018-06-27T08:17:12.683Z,54464.00
2018-06-27T08:18:12.765Z,55552.00
2018-06-27T08:20:05.795Z,57920.00
2018-06-27T08:21:05.872Z,78848.00
2018-06-27T08:22:58.893Z,84256.00
2018-06-27T08:23:58.973Z,91328.00
2018-06-27T08:25:52.009Z,91552.00
2018-06-27T08:26:52.084Z,91424.00
2018-06-27T08:28:45.113Z,98688.00
2018-06-27T08:29:45.187Z,100416.00
2018-06-27T08:31:38.215Z,106016.00
2018-06-27T08:32:38.359Z,115360.00
2018-06-27T08:34:31.325Z,109568.00
2018-06-27T08:35:31.400Z,111456.00
2018-06-27T08:37:24.427Z,115296.00
2018-06-27T08:38:24.509Z,117152.00
2018-06-27T08:40:17.541Z,112288.00
2018-06-27T08:41:17.612Z,110464.00
2018-06-27T08:43:10.647Z,111584.00
2018-06-27T08:44:10.731Z,109120.00
2018-06-27T08:46:03.765Z,112736.00
2018-06-27T08:47:03.835Z,115104.00
2018-06-27T08:48:56.888Z,112032.00
2018-06-27T08:49:56.961Z,112672.00
2018-06-27T08:51:49.986Z,118784.00
2018-06-27T08:52:50.073Z,118464.00
2018-06-27T08:54:43.142Z,110592.00
2018-06-27T08:55:43.220Z,111584.00
2018-06-27T08:57:36.249Z,116032.00
2018-06-27T08:58:36.339Z,114240.00
2018-06-27T09:00:29.373Z,114944.00
2018-06-27T09:01:29.451Z,109440.00
2018-06-27T09:03:22.482Z,109888.00
2018-06-27T09:04:22.558Z,107552.00
2018-06-27T09:06:15.603Z,93632.00
2018-06-27T09:07:15.681Z,91680.00
2018-06-27T09:09:08.712Z,95904.00
2018-06-27T09:10:08.795Z,97504.00
2018-06-27T09:12:01.841Z,94272.00
2018-06-27T09:13:01.916Z,96576.00
2018-06-27T09:14:54.952Z,99360.00
2018-06-27T09:15:55.023Z,101472.00
2018-06-27T09:17:48.061Z,94976.00
2018-06-27T09:18:48.144Z,92352.00
2018-06-27T09:20:41.181Z,98080.00
2018-06-27T09:21:41.262Z,95488.00
2018-06-27T09:23:34.286Z,89632.00
2018-06-27T09:24:34.373Z,90560.00
2018-06-27T09:26:27.413Z,91328.00
2018-06-27T09:27:27.489Z,92288.00
2018-06-27T09:29:20.519Z,93440.00
2018-06-27T09:30:20.602Z,94784.00
2018-06-27T09:32:13.646Z,90272.00
2018-06-27T09:33:13.714Z,88192.00
2018-06-27T09:35:06.751Z,93472.00
2018-06-27T09:36:06.826Z,89792.00
2018-06-27T09:37:59.855Z,18304.00
2018-06-27T09:38:59.937Z,8588.00
2018-06-27T09:40:52.969Z,7432.00
2018-06-27T09:41:53.059Z,7436.00
2018-06-27T09:43:46.073Z,7908.00
2018-06-27T09:44:46.147Z,8156.00
2018-06-27T09:46:39.177Z,8164.00
2018-06-27T09:47:39.273Z,8216.00
2018-06-27T09:49:32.264Z,8296.00
2018-06-27T09:50:32.338Z,8548.00
2018-06-27T09:52:25.367Z,8580.00
2018-06-27T09:53:25.437Z,8504.00
2018-06-27T09:55:18.452Z,7716.00
2018-06-27T09:56:18.527Z,7776.00
2018-06-27T09:58:11.547Z,8308.00
2018-06-27T09:59:11.615Z,8060.00
2018-06-27T10:01:04.635Z,8108.00
2018-06-27T10:02:04.723Z,7484.00
2018-06-27T10:03:57.719Z,7516.00
2018-06-27T10:04:57.792Z,7460.00
2018-06-27T10:06:50.808Z,7224.00
2018-06-27T10:07:50.877Z,6928.00
2018-06-27T10:09:44.388Z,7540.00
2018-06-27T10:10:44.460Z,7592.00
2018-06-27T10:12:37.476Z,8196.00
2018-06-27T10:13:37.543Z,7804.00
2018-06-27T10:15:30.552Z,7136.00
2018-06-27T10:16:30.623Z,6932.00
2018-06-27T10:18:23.637Z,7036.00
2018-06-27T10:19:23.706Z,7164.00
2018-06-27T10:21:16.718Z,7544.00
2018-06-27T10:22:16.824Z,7424.00
2018-06-27T10:24:09.799Z,8228.00
2018-06-27T10:25:09.875Z,7580.00
2018-06-27T10:27:02.886Z,7532.00
2018-06-27T10:28:02.950Z,7176.00
2018-06-27T10:29:55.980Z,7596.00
2018-06-27T10:30:56.054Z,7460.00
2018-06-27T10:32:49.068Z,7384.00
2018-06-27T10:33:49.132Z,7348.00
2018-06-27T10:35:42.165Z,7560.00
2018-06-27T10:36:42.210Z,8752.00
2018-06-27T10:38:35.219Z,10888.00
2018-06-27T10:39:35.288Z,12040.00
2018-06-27T10:41:28.298Z,8464.00
2018-06-27T10:42:28.363Z,7984.00
2018-06-27T10:44:21.389Z,7928.00
2018-06-27T10:45:21.444Z,8896.00
2018-06-27T10:47:14.458Z,6928.00
2018-06-27T10:48:14.521Z,6724.00
2018-06-27T10:50:07.527Z,7012.00
2018-06-27T10:51:07.596Z,7172.00
2018-06-27T10:53:00.605Z,8144.00
2018-06-27T10:54:00.673Z,6968.00
2018-06-27T10:55:53.680Z,9404.00
2018-06-27T10:56:53.754Z,7776.00
2018-06-27T10:58:46.767Z,6128.00
2018-06-27T10:59:46.830Z,6772.00
2018-06-27T11:01:39.841Z,7196.00
2018-06-27T11:02:39.906Z,6932.00
2018-06-27T11:04:32.915Z,6992.00
2018-06-27T11:05:32.984Z,6668.00
2018-06-27T11:07:25.992Z,6616.00
2018-06-27T11:08:26.060Z,7800.00
2018-06-27T11:10:19.065Z,11904.00
2018-06-27T11:11:19.140Z,10812.00
2018-06-27T11:13:12.151Z,13504.00
2018-06-27T11:14:12.279Z,11732.00
2018-06-27T11:16:05.228Z,11152.00
2018-06-27T11:17:05.295Z,11756.00
2018-06-27T11:18:58.308Z,11960.00
2018-06-27T11:19:58.372Z,10844.00
2018-06-27T11:21:51.378Z,9368.00
2018-06-27T11:22:51.450Z,7076.00
2018-06-27T11:24:44.459Z,6964.00
2018-06-27T11:25:44.524Z,7432.00
2018-06-27T11:27:37.536Z,6264.00
2018-06-27T11:28:37.600Z,5364.00
2018-06-27T11:30:30.612Z,7252.00
2018-06-27T11:31:30.681Z,6664.00
2018-06-27T11:33:23.703Z,6256.00
2018-06-27T11:34:23.765Z,5904.00
2018-06-27T11:36:16.777Z,5460.00
2018-06-27T11:37:16.841Z,5172.00
2018-06-27T11:39:09.848Z,6160.00
2018-06-27T11:40:09.912Z,7816.00
2018-06-27T11:42:02.922Z,10640.00
2018-06-27T11:43:02.994Z,10528.00
2018-06-27T11:44:55.999Z,11892.00
2018-06-27T11:45:56.066Z,11272.00
2018-06-27T11:47:49.083Z,7976.00
2018-06-27T11:48:49.147Z,7284.00
2018-06-27T11:50:42.151Z,6680.00
2018-06-27T11:51:42.225Z,6732.00
2018-06-27T11:53:35.232Z,6184.00
2018-06-27T11:54:35.304Z,5752.00
2018-06-27T11:56:28.302Z,8676.00
2018-06-27T11:57:28.373Z,9812.00
2018-06-27T11:59:21.387Z,7076.00
2018-06-27T12:00:21.446Z,6124.00
2018-06-27T12:02:14.452Z,5732.00
2018-06-27T12:03:14.523Z,6676.00
2018-06-27T12:05:07.529Z,7000.00
2018-06-27T12:06:07.595Z,6340.00
2018-06-27T12:08:00.598Z,5384.00
2018-06-27T12:09:00.668Z,4900.00
2018-06-27T12:10:53.678Z,5732.00
2018-06-27T12:11:53.748Z,5100.00
2018-06-27T12:13:46.758Z,4796.00
2018-06-27T12:14:46.819Z,4700.00
2018-06-27T12:16:39.830Z,5260.00
2018-06-27T12:17:39.893Z,5596.00
2018-06-27T12:19:32.907Z,6840.00
2018-06-27T12:20:32.971Z,7420.00
2018-06-27T12:22:25.974Z,5868.00
2018-06-27T12:23:26.034Z,5412.00
2018-06-27T12:25:19.070Z,8992.00
2018-06-27T12:26:19.181Z,9508.00
2018-06-27T12:28:12.132Z,11932.00
2018-06-27T12:29:12.188Z,10268.00
2018-06-27T12:31:05.200Z,6336.00
2018-06-27T12:32:05.263Z,5228.00
2018-06-27T12:33:58.260Z,7040.00
2018-06-27T12:34:58.339Z,7948.00
2018-06-27T12:36:51.345Z,8664.00
2018-06-27T12:37:51.410Z,10380.00
2018-06-27T12:39:44.420Z,7524.00
2018-06-27T12:40:44.483Z,7876.00
2018-06-27T12:42:37.490Z,7292.00
2018-06-27T12:43:37.561Z,7592.00
2018-06-27T12:45:30.580Z,7396.00
2018-06-27T12:46:30.635Z,7428.00
2018-06-27T12:48:23.647Z,6744.00
2018-06-27T12:49:23.715Z,5600.00
2018-06-27T12:51:16.727Z,4644.00
2018-06-27T12:52:16.790Z,4128.00
2018-06-27T12:54:09.806Z,3984.00
2018-06-27T12:55:09.875Z,4336.00
2018-06-27T12:57:02.879Z,5032.00
2018-06-27T12:58:02.946Z,4800.00
2018-06-27T12:59:55.977Z,4328.00
2018-06-27T13:00:56.029Z,5008.00
2018-06-27T13:02:49.028Z,7812.00
2018-06-27T13:03:49.095Z,9716.00
2018-06-27T13:05:42.621Z,9612.00
2018-06-27T13:06:42.678Z,9964.00
2018-06-27T13:08:35.681Z,7288.00
2018-06-27T13:09:35.751Z,5504.00
2018-06-27T13:11:28.769Z,5508.00
2018-06-27T13:12:28.831Z,5640.00
2018-06-27T13:14:21.836Z,5208.00
2018-06-27T13:15:21.905Z,5412.00
2018-06-27T13:17:14.915Z,5896.00
2018-06-27T13:18:14.984Z,5872.00
2018-06-27T13:20:08.003Z,7336.00
2018-06-27T13:21:08.053Z,7800.00
2018-06-27T13:23:01.058Z,5988.00
2018-06-27T13:24:01.148Z,6860.00
2018-06-27T13:25:54.138Z,9644.00
2018-06-27T13:26:54.200Z,8128.00
2018-06-27T13:28:47.219Z,9320.00
2018-06-27T13:29:47.266Z,11084.00
2018-06-27T13:31:40.282Z,9248.00
2018-06-27T13:32:40.350Z,7892.00
2018-06-27T13:34:33.355Z,8664.00
2018-06-27T13:35:33.420Z,7804.00
2018-06-27T13:37:26.430Z,4448.00
2018-06-27T13:38:26.497Z,4908.00
2018-06-27T13:40:19.499Z,4928.00
2018-06-27T13:41:19.568Z,4336.00
2018-06-27T13:43:12.605Z,4756.00
2018-06-27T13:44:12.643Z,5080.00
2018-06-27T13:46:05.658Z,6872.00
2018-06-27T13:47:05.725Z,8072.00
2018-06-27T13:48:58.727Z,9600.00
2018-06-27T13:49:58.847Z,9364.00
2018-06-27T13:51:51.806Z,9620.00
2018-06-27T13:52:51.873Z,8428.00
2018-06-27T13:54:44.878Z,6080.00
2018-06-27T13:55:44.948Z,4744.00
2018-06-27T13:57:37.956Z,3912.00
2018-06-27T13:58:38.019Z,4200.00
2018-06-27T14:00:31.026Z,5696.00
2018-06-27T14:01:31.097Z,5836.00
2018-06-27T14:03:24.104Z,4756.00
2018-06-27T14:04:24.167Z,4940.00
2018-06-27T14:06:17.742Z,5212.00
2018-06-27T14:07:17.748Z,6172.00
2018-06-27T14:09:10.758Z,7852.00
2018-06-27T14:10:10.820Z,7928.00
2018-06-27T14:12:03.828Z,6760.00
2018-06-27T14:13:03.893Z,5956.00
2018-06-27T14:14:56.900Z,6748.00
2018-06-27T14:15:56.970Z,7068.00
2018-06-27T14:17:49.983Z,6400.00
2018-06-27T14:18:50.120Z,5608.00
2018-06-27T14:20:43.056Z,4012.00
2018-06-27T14:21:43.122Z,4116.00
2018-06-27T14:23:36.129Z,3904.00
2018-06-27T14:24:36.194Z,3868.00
2018-06-27T14:26:29.201Z,5352.00
2018-06-27T14:27:29.266Z,7532.00
2018-06-27T14:29:22.273Z,8808.00
2018-06-27T14:30:22.337Z,8396.00
2018-06-27T14:32:15.361Z,6580.00
2018-06-27T14:33:15.412Z,5448.00
2018-06-27T14:35:08.421Z,4000.00
2018-06-27T14:36:08.489Z,3632.00
2018-06-27T14:38:01.499Z,3060.00
2018-06-27T14:39:01.561Z,3200.00
2018-06-27T14:40:54.567Z,3992.00
2018-06-27T14:41:54.634Z,4436.00
2018-06-27T14:43:47.648Z,4364.00
2018-06-27T14:44:47.706Z,4420.00
2018-06-27T14:46:40.701Z,5688.00
2018-06-27T14:47:40.792Z,7204.00
2018-06-27T14:49:33.787Z,7984.00
2018-06-27T14:50:33.848Z,8004.00
2018-06-27T14:52:27.368Z,7236.00
2018-06-27T14:53:27.431Z,6204.00
2018-06-27T14:55:20.442Z,6132.00
2018-06-27T14:56:20.505Z,5780.00
2018-06-27T14:58:13.520Z,6152.00
2018-06-27T14:59:13.583Z,7104.00
2018-06-27T15:01:06.585Z,7504.00
2018-06-27T15:02:06.656Z,7592.00
2018-06-27T15:03:59.666Z,7960.00
2018-06-27T15:04:59.728Z,7868.00
2018-06-27T15:06:52.734Z,5696.00
2018-06-27T15:07:52.800Z,3916.00
2018-06-27T15:09:45.816Z,2748.00
2018-06-27T15:10:45.893Z,2776.00
2018-06-27T15:12:38.895Z,2816.00
2018-06-27T15:13:38.969Z,3220.00
2018-06-27T15:15:31.966Z,5168.00
2018-06-27T15:16:32.030Z,7512.00
2018-06-27T15:18:25.039Z,9764.00
2018-06-27T15:19:25.102Z,9488.00
2018-06-27T15:21:18.111Z,7164.00
2018-06-27T15:22:18.174Z,5440.00
2018-06-27T15:24:11.186Z,2828.00
2018-06-27T15:25:11.247Z,2436.00
2018-06-27T15:27:04.253Z,2280.00
2018-06-27T15:28:04.321Z,2348.00
2018-06-27T15:29:57.328Z,2352.00
2018-06-27T15:30:57.393Z,2560.00
2018-06-27T15:32:50.398Z,2900.00
2018-06-27T15:33:50.467Z,3068.00
2018-06-27T15:35:43.474Z,3812.00
2018-06-27T15:36:43.537Z,4136.00
2018-06-27T15:38:36.541Z,4512.00
2018-06-27T15:39:36.608Z,4368.00
2018-06-27T15:41:29.616Z,4200.00
2018-06-27T15:42:29.680Z,4232.00
2018-06-27T15:44:22.687Z,3880.00
2018-06-27T15:45:22.750Z,3524.00
2018-06-27T15:47:15.757Z,2928.00
2018-06-27T15:48:15.829Z,3152.00
2018-06-27T15:50:08.834Z,3352.00
2018-06-27T15:51:08.896Z,2972.00
2018-06-27T15:53:01.917Z,3764.00
2018-06-27T15:54:01.972Z,3816.00
2018-06-27T15:55:54.979Z,3352.00
2018-06-27T15:56:55.112Z,3308.00
2018-06-27T15:58:48.064Z,3340.00
2018-06-27T15:59:48.115Z,3776.00
2018-06-27T16:01:41.119Z,4128.00
2018-06-27T16:02:41.347Z,4388.00
2018-06-27T16:04:34.190Z,4060.00
2018-06-27T16:05:34.254Z,3712.00
2018-06-27T16:07:27.269Z,4100.00
2018-06-27T16:08:27.328Z,5244.00
2018-06-27T16:10:20.340Z,5284.00
2018-06-27T16:11:20.506Z,4932.00
2018-06-27T16:13:13.408Z,2952.00
2018-06-27T16:14:13.479Z,2572.00
2018-06-27T16:16:06.489Z,2940.00
2018-06-27T16:17:06.578Z,3472.00
2018-06-27T16:18:59.556Z,2692.00
2018-06-27T16:19:59.619Z,2604.00
2018-06-27T16:21:52.627Z,3156.00
2018-06-27T16:22:52.694Z,3312.00
2018-06-27T16:24:45.701Z,2780.00
2018-06-27T16:25:45.759Z,2516.00
2018-06-27T16:27:38.774Z,2436.00
2018-06-27T16:28:38.839Z,2412.00
2018-06-27T16:30:31.845Z,2388.00
2018-06-27T16:31:31.909Z,2368.00
2018-06-27T16:36:15.590Z,2332.00
2018-06-27T16:37:15.645Z,2304.00
2018-06-27T16:39:08.645Z,2460.00
2018-06-27T16:40:08.738Z,2456.00
2018-06-27T16:42:01.762Z,2504.00
2018-06-27T16:43:01.845Z,2748.00
2018-06-27T16:44:54.801Z,3332.00
2018-06-27T16:45:54.880Z,3708.00
2018-06-27T16:47:47.870Z,4252.00
2018-06-27T16:48:47.926Z,3580.00
2018-06-27T16:50:40.984Z,2988.00
2018-06-27T16:51:41.036Z,3140.00
2018-06-27T16:53:34.035Z,3432.00
2018-06-27T16:54:34.071Z,3600.00
2018-06-27T16:56:27.081Z,3360.00
2018-06-27T16:57:27.149Z,3084.00
2018-06-27T16:59:20.146Z,2724.00
2018-06-27T17:00:20.217Z,2400.00
2018-06-27T17:02:13.229Z,2060.00
2018-06-27T17:03:13.293Z,1952.00
2018-06-27T17:05:06.364Z,1924.00
2018-06-27T17:06:06.401Z,1916.00
2018-06-27T17:07:59.405Z,2048.00
2018-06-27T17:08:59.461Z,2164.00
2018-06-27T17:10:52.465Z,2560.00
2018-06-27T17:11:52.540Z,2828.00
2018-06-27T17:13:45.543Z,2872.00
2018-06-27T17:14:45.626Z,2888.00
2018-06-27T17:16:38.608Z,3112.00
2018-06-27T17:17:38.672Z,3156.00
2018-06-27T17:19:31.686Z,3880.00
2018-06-27T17:20:31.753Z,4376.00
2018-06-27T17:22:24.758Z,3936.00
2018-06-27T17:23:24.819Z,3860.00
2018-06-27T17:25:17.854Z,3644.00
2018-06-27T17:26:17.888Z,3392.00
2018-06-27T17:28:10.896Z,3276.00
2018-06-27T17:29:10.958Z,3228.00
2018-06-27T17:31:04.030Z,3288.00
2018-06-27T17:32:04.029Z,3116.00
2018-06-27T17:33:57.038Z,2800.00
2018-06-27T17:34:57.101Z,2688.00
2018-06-27T17:36:50.104Z,2672.00
2018-06-27T17:37:50.172Z,2584.00
2018-06-27T17:39:43.199Z,2336.00